sensor_id;sensor_type;location;lat;lon;timestamp;P1;durP1;ratioP1;P2;durP2;ratioP2
11016;SDS011;54687;50.800;6.772;2023-03-21T00:00:35;8.18;;;5.25;;
11016;SDS011;54687;50.800;6.772;2023-03-21T00:03:02;5.97;;;4.55;;
11016;SDS011;54687;50.800;6.772;2023-03-21T00:05:30;7.22;;;5.18;;
11016;SDS011;54687;50.800;6.772;2023-03-21T00:07:56;7.45;;;5.20;;
11016;SDS011;54687;50.800;6.772;2023-03-21T00:10:23;7.18;;;4.80;;
11016;SDS011;54687;50.800;6.772;2023-03-21T00:12:50;7.03;;;5.10;;
11016;SDS011;54687;50.800;6.772;2023-03-21T00:15:23;8.50;;;5.13;;
11016;SDS011;54687;50.800;6.772;2023-03-21T00:17:50;9.10;;;5.55;;
11016;SDS011;54687;50.800;6.772;2023-03-21T00:20:18;10.32;;;5.82;;
11016;SDS011;54687;50.800;6.772;2023-03-21T00:22:46;7.70;;;5.18;;
11016;SDS011;54687;50.800;6.772;2023-03-21T00:25:13;8.70;;;6.00;;
11016;SDS011;54687;50.800;6.772;2023-03-21T00:27:39;6.93;;;5.78;;
11016;SDS011;54687;50.800;6.772;2023-03-21T00:30:06;9.80;;;5.53;;
11016;SDS011;54687;50.800;6.772;2023-03-21T00:32:34;8.93;;;5.45;;
11016;SDS011;54687;50.800;6.772;2023-03-21T00:35:00;7.22;;;5.82;;
11016;SDS011;54687;50.800;6.772;2023-03-21T00:37:27;7.70;;;5.85;;
11016;SDS011;54687;50.800;6.772;2023-03-21T00:39:55;7.25;;;5.85;;
11016;SDS011;54687;50.800;6.772;2023-03-21T00:42:21;9.60;;;6.70;;
11016;SDS011;54687;50.800;6.772;2023-03-21T00:44:48;6.68;;;5.57;;
11016;SDS011;54687;50.800;6.772;2023-03-21T00:47:15;9.18;;;6.32;;
11016;SDS011;54687;50.800;6.772;2023-03-21T00:49:41;8.15;;;5.53;;
11016;SDS011;54687;50.800;6.772;2023-03-21T00:52:08;10.23;;;5.95;;
11016;SDS011;54687;50.800;6.772;2023-03-21T00:54:36;6.07;;;5.47;;
11016;SDS011;54687;50.800;6.772;2023-03-21T00:57:04;8.00;;;5.70;;
11016;SDS011;54687;50.800;6.772;2023-03-21T00:59:31;9.27;;;6.10;;
11016;SDS011;54687;50.800;6.772;2023-03-21T01:01:57;9.38;;;6.00;;
11016;SDS011;54687;50.800;6.772;2023-03-21T01:04:25;7.43;;;6.20;;
11016;SDS011;54687;50.800;6.772;2023-03-21T01:06:53;10.02;;;6.00;;
11016;SDS011;54687;50.800;6.772;2023-03-21T01:09:20;9.40;;;6.18;;
11016;SDS011;54687;50.800;6.772;2023-03-21T01:11:49;7.90;;;6.03;;
11016;SDS011;54687;50.800;6.772;2023-03-21T01:14:18;8.30;;;5.90;;
11016;SDS011;54687;50.800;6.772;2023-03-21T01:16:45;8.10;;;6.15;;
11016;SDS011;54687;50.800;6.772;2023-03-21T01:19:13;8.23;;;5.93;;
11016;SDS011;54687;50.800;6.772;2023-03-21T01:21:41;8.23;;;6.00;;
11016;SDS011;54687;50.800;6.772;2023-03-21T01:24:08;8.93;;;5.85;;
11016;SDS011;54687;50.800;6.772;2023-03-21T01:26:35;9.40;;;5.72;;
11016;SDS011;54687;50.800;6.772;2023-03-21T01:29:02;11.00;;;5.82;;
11016;SDS011;54687;50.800;6.772;2023-03-21T01:31:30;10.20;;;6.78;;
11016;SDS011;54687;50.800;6.772;2023-03-21T01:33:57;9.43;;;7.22;;
11016;SDS011;54687;50.800;6.772;2023-03-21T01:36:24;11.15;;;8.27;;
11016;SDS011;54687;50.800;6.772;2023-03-21T01:38:52;10.45;;;7.72;;
11016;SDS011;54687;50.800;6.772;2023-03-21T01:41:20;8.85;;;7.53;;
11016;SDS011;54687;50.800;6.772;2023-03-21T01:43:51;10.30;;;7.32;;
11016;SDS011;54687;50.800;6.772;2023-03-21T01:46:25;11.27;;;6.78;;
11016;SDS011;54687;50.800;6.772;2023-03-21T01:48:59;10.38;;;6.38;;
11016;SDS011;54687;50.800;6.772;2023-03-21T01:51:29;7.35;;;6.07;;
11016;SDS011;54687;50.800;6.772;2023-03-21T01:53:57;7.93;;;5.80;;
11016;SDS011;54687;50.800;6.772;2023-03-21T01:56:26;6.65;;;5.30;;
11016;SDS011;54687;50.800;6.772;2023-03-21T01:58:57;7.55;;;5.85;;
11016;SDS011;54687;50.800;6.772;2023-03-21T02:01:29;7.85;;;5.57;;
11016;SDS011;54687;50.800;6.772;2023-03-21T02:04:00;10.63;;;6.00;;
11016;SDS011;54687;50.800;6.772;2023-03-21T02:06:30;9.52;;;5.55;;
11016;SDS011;54687;50.800;6.772;2023-03-21T02:09:01;7.80;;;5.40;;
11016;SDS011;54687;50.800;6.772;2023-03-21T02:11:33;7.68;;;5.68;;
11016;SDS011;54687;50.800;6.772;2023-03-21T02:14:02;7.05;;;5.72;;
11016;SDS011;54687;50.800;6.772;2023-03-21T02:16:33;10.65;;;5.93;;
11016;SDS011;54687;50.800;6.772;2023-03-21T02:19:14;8.77;;;6.47;;
11016;SDS011;54687;50.800;6.772;2023-03-21T02:22:02;9.50;;;6.22;;
11016;SDS011;54687;50.800;6.772;2023-03-21T02:24:50;11.63;;;6.70;;
11016;SDS011;54687;50.800;6.772;2023-03-21T02:27:33;8.20;;;5.68;;
11016;SDS011;54687;50.800;6.772;2023-03-21T02:30:22;7.57;;;6.05;;
11016;SDS011;54687;50.800;6.772;2023-03-21T02:36:05;8.52;;;6.13;;
11016;SDS011;54687;50.800;6.772;2023-03-21T02:38:44;9.77;;;6.22;;
11016;SDS011;54687;50.800;6.772;2023-03-21T02:41:17;9.07;;;6.93;;
11016;SDS011;54687;50.800;6.772;2023-03-21T02:43:51;8.63;;;5.85;;
11016;SDS011;54687;50.800;6.772;2023-03-21T02:46:25;10.25;;;6.35;;
11016;SDS011;54687;50.800;6.772;2023-03-21T02:49:00;8.75;;;5.68;;
11016;SDS011;54687;50.800;6.772;2023-03-21T02:51:32;9.68;;;6.75;;
11016;SDS011;54687;50.800;6.772;2023-03-21T02:54:04;10.65;;;6.57;;
11016;SDS011;54687;50.800;6.772;2023-03-21T02:56:34;9.98;;;6.18;;
11016;SDS011;54687;50.800;6.772;2023-03-21T02:59:02;9.15;;;5.93;;
11016;SDS011;54687;50.800;6.772;2023-03-21T03:01:31;8.80;;;6.03;;
11016;SDS011;54687;50.800;6.772;2023-03-21T03:03:58;7.53;;;5.25;;
11016;SDS011;54687;50.800;6.772;2023-03-21T03:06:26;10.40;;;6.40;;
11016;SDS011;54687;50.800;6.772;2023-03-21T03:09:05;10.27;;;5.60;;
11016;SDS011;54687;50.800;6.772;2023-03-21T03:11:41;10.93;;;6.05;;
11016;SDS011;54687;50.800;6.772;2023-03-21T03:17:15;7.88;;;5.55;;
11016;SDS011;54687;50.800;6.772;2023-03-21T03:19:53;7.97;;;5.70;;
11016;SDS011;54687;50.800;6.772;2023-03-21T03:22:33;8.68;;;5.75;;
11016;SDS011;54687;50.800;6.772;2023-03-21T03:25:08;7.43;;;6.15;;
11016;SDS011;54687;50.800;6.772;2023-03-21T03:27:39;9.07;;;5.53;;
11016;SDS011;54687;50.800;6.772;2023-03-21T03:30:09;9.27;;;5.82;;
11016;SDS011;54687;50.800;6.772;2023-03-21T03:32:38;9.20;;;5.55;;
11016;SDS011;54687;50.800;6.772;2023-03-21T03:35:09;13.25;;;7.43;;
11016;SDS011;54687;50.800;6.772;2023-03-21T03:37:39;9.75;;;5.93;;
11016;SDS011;54687;50.800;6.772;2023-03-21T03:40:09;8.38;;;5.75;;
11016;SDS011;54687;50.800;6.772;2023-03-21T03:42:41;9.50;;;5.97;;
11016;SDS011;54687;50.800;6.772;2023-03-21T03:45:12;8.68;;;5.97;;
11016;SDS011;54687;50.800;6.772;2023-03-21T03:47:40;9.13;;;6.00;;
11016;SDS011;54687;50.800;6.772;2023-03-21T03:50:11;12.90;;;6.35;;
11016;SDS011;54687;50.800;6.772;2023-03-21T03:52:43;8.52;;;5.63;;
11016;SDS011;54687;50.800;6.772;2023-03-21T03:55:16;7.43;;;5.53;;
11016;SDS011;54687;50.800;6.772;2023-03-21T03:57:45;9.90;;;6.05;;
11016;SDS011;54687;50.800;6.772;2023-03-21T04:00:13;7.70;;;6.00;;
11016;SDS011;54687;50.800;6.772;2023-03-21T04:02:41;8.63;;;5.70;;
11016;SDS011;54687;50.800;6.772;2023-03-21T04:05:08;10.00;;;5.88;;
11016;SDS011;54687;50.800;6.772;2023-03-21T04:07:34;9.90;;;6.15;;
11016;SDS011;54687;50.800;6.772;2023-03-21T04:10:01;8.55;;;5.82;;
11016;SDS011;54687;50.800;6.772;2023-03-21T04:12:30;8.38;;;6.07;;
11016;SDS011;54687;50.800;6.772;2023-03-21T04:14:56;8.75;;;6.00;;
11016;SDS011;54687;50.800;6.772;2023-03-21T04:17:23;8.98;;;5.50;;
11016;SDS011;54687;50.800;6.772;2023-03-21T04:19:50;9.73;;;5.88;;
11016;SDS011;54687;50.800;6.772;2023-03-21T04:22:16;6.07;;;5.00;;
11016;SDS011;54687;50.800;6.772;2023-03-21T04:24:43;9.25;;;5.78;;
11016;SDS011;54687;50.800;6.772;2023-03-21T04:27:09;8.73;;;5.65;;
11016;SDS011;54687;50.800;6.772;2023-03-21T04:29:39;11.20;;;6.03;;
11016;SDS011;54687;50.800;6.772;2023-03-21T04:32:06;6.97;;;5.82;;
11016;SDS011;54687;50.800;6.772;2023-03-21T04:34:43;7.85;;;6.10;;
11016;SDS011;54687;50.800;6.772;2023-03-21T04:37:14;10.02;;;5.55;;
11016;SDS011;54687;50.800;6.772;2023-03-21T04:39:41;9.02;;;5.82;;
11016;SDS011;54687;50.800;6.772;2023-03-21T04:42:08;9.82;;;5.60;;
11016;SDS011;54687;50.800;6.772;2023-03-21T04:44:34;7.40;;;5.65;;
11016;SDS011;54687;50.800;6.772;2023-03-21T04:47:03;8.35;;;5.40;;
11016;SDS011;54687;50.800;6.772;2023-03-21T04:49:29;10.27;;;5.18;;
11016;SDS011;54687;50.800;6.772;2023-03-21T04:51:56;8.48;;;5.53;;
11016;SDS011;54687;50.800;6.772;2023-03-21T04:54:22;7.75;;;5.35;;
11016;SDS011;54687;50.800;6.772;2023-03-21T04:56:49;7.93;;;5.22;;
11016;SDS011;54687;50.800;6.772;2023-03-21T04:59:17;10.00;;;5.22;;
11016;SDS011;54687;50.800;6.772;2023-03-21T05:01:44;8.85;;;4.75;;
11016;SDS011;54687;50.800;6.772;2023-03-21T05:04:12;8.65;;;5.68;;
11016;SDS011;54687;50.800;6.772;2023-03-21T05:06:40;8.73;;;5.35;;
11016;SDS011;54687;50.800;6.772;2023-03-21T05:09:08;10.13;;;6.05;;
11016;SDS011;54687;50.800;6.772;2023-03-21T05:11:35;10.73;;;5.38;;
11016;SDS011;54687;50.800;6.772;2023-03-21T05:14:04;8.68;;;5.70;;
11016;SDS011;54687;50.800;6.772;2023-03-21T05:16:32;11.43;;;5.43;;
11016;SDS011;54687;50.800;6.772;2023-03-21T05:18:59;8.00;;;5.25;;
11016;SDS011;54687;50.800;6.772;2023-03-21T05:21:29;9.52;;;5.93;;
11016;SDS011;54687;50.800;6.772;2023-03-21T05:23:58;11.15;;;6.18;;
11016;SDS011;54687;50.800;6.772;2023-03-21T05:26:28;8.25;;;5.90;;
11016;SDS011;54687;50.800;6.772;2023-03-21T05:28:54;10.40;;;6.03;;
11016;SDS011;54687;50.800;6.772;2023-03-21T05:31:21;8.43;;;6.03;;
11016;SDS011;54687;50.800;6.772;2023-03-21T05:33:47;9.88;;;6.05;;
11016;SDS011;54687;50.800;6.772;2023-03-21T05:36:14;10.77;;;6.47;;
11016;SDS011;54687;50.800;6.772;2023-03-21T05:38:42;8.10;;;5.80;;
11016;SDS011;54687;50.800;6.772;2023-03-21T05:41:10;12.68;;;7.78;;
11016;SDS011;54687;50.800;6.772;2023-03-21T05:43:37;8.90;;;6.00;;
11016;SDS011;54687;50.800;6.772;2023-03-21T05:46:04;8.02;;;5.57;;
11016;SDS011;54687;50.800;6.772;2023-03-21T05:48:31;6.65;;;5.72;;
11016;SDS011;54687;50.800;6.772;2023-03-21T05:50:58;7.55;;;5.63;;
11016;SDS011;54687;50.800;6.772;2023-03-21T05:53:26;10.05;;;5.78;;
11016;SDS011;54687;50.800;6.772;2023-03-21T05:55:53;13.43;;;6.05;;
11016;SDS011;54687;50.800;6.772;2023-03-21T05:58:20;8.25;;;5.82;;
11016;SDS011;54687;50.800;6.772;2023-03-21T06:00:47;9.85;;;6.32;;
11016;SDS011;54687;50.800;6.772;2023-03-21T06:03:13;8.30;;;5.50;;
11016;SDS011;54687;50.800;6.772;2023-03-21T06:05:40;9.02;;;6.03;;
11016;SDS011;54687;50.800;6.772;2023-03-21T06:08:07;12.85;;;5.70;;
11016;SDS011;54687;50.800;6.772;2023-03-21T06:10:33;8.68;;;5.88;;
11016;SDS011;54687;50.800;6.772;2023-03-21T06:13:02;7.88;;;5.93;;
11016;SDS011;54687;50.800;6.772;2023-03-21T06:15:28;9.18;;;5.80;;
11016;SDS011;54687;50.800;6.772;2023-03-21T06:17:55;10.02;;;6.28;;
11016;SDS011;54687;50.800;6.772;2023-03-21T06:20:22;8.88;;;5.43;;
11016;SDS011;54687;50.800;6.772;2023-03-21T06:22:48;7.80;;;5.25;;
11016;SDS011;54687;50.800;6.772;2023-03-21T06:25:15;8.25;;;5.70;;
11016;SDS011;54687;50.800;6.772;2023-03-21T06:27:42;11.35;;;6.15;;
11016;SDS011;54687;50.800;6.772;2023-03-21T06:30:10;14.70;;;7.35;;
11016;SDS011;54687;50.800;6.772;2023-03-21T06:32:37;14.95;;;8.38;;
11016;SDS011;54687;50.800;6.772;2023-03-21T06:35:04;11.18;;;7.88;;
11016;SDS011;54687;50.800;6.772;2023-03-21T06:37:31;10.23;;;6.95;;
11016;SDS011;54687;50.800;6.772;2023-03-21T06:39:58;14.25;;;7.82;;
11016;SDS011;54687;50.800;6.772;2023-03-21T06:42:25;10.32;;;6.72;;
11016;SDS011;54687;50.800;6.772;2023-03-21T06:44:53;9.80;;;6.38;;
11016;SDS011;54687;50.800;6.772;2023-03-21T06:47:21;8.43;;;5.85;;
11016;SDS011;54687;50.800;6.772;2023-03-21T06:49:47;11.75;;;6.60;;
11016;SDS011;54687;50.800;6.772;2023-03-21T06:52:14;13.32;;;7.40;;
11016;SDS011;54687;50.800;6.772;2023-03-21T06:54:41;11.02;;;6.68;;
11016;SDS011;54687;50.800;6.772;2023-03-21T06:57:07;10.70;;;6.80;;
11016;SDS011;54687;50.800;6.772;2023-03-21T06:59:34;9.05;;;6.53;;
11016;SDS011;54687;50.800;6.772;2023-03-21T07:02:01;12.73;;;7.32;;
11016;SDS011;54687;50.800;6.772;2023-03-21T07:04:29;10.80;;;6.57;;
11016;SDS011;54687;50.800;6.772;2023-03-21T07:06:56;12.05;;;6.85;;
11016;SDS011;54687;50.800;6.772;2023-03-21T07:09:22;11.85;;;7.10;;
11016;SDS011;54687;50.800;6.772;2023-03-21T07:11:52;12.50;;;7.13;;
11016;SDS011;54687;50.800;6.772;2023-03-21T07:14:18;13.27;;;7.28;;
11016;SDS011;54687;50.800;6.772;2023-03-21T07:16:45;10.73;;;7.18;;
11016;SDS011;54687;50.800;6.772;2023-03-21T07:19:12;13.93;;;6.88;;
11016;SDS011;54687;50.800;6.772;2023-03-21T07:21:41;11.77;;;6.95;;
11016;SDS011;54687;50.800;6.772;2023-03-21T07:24:08;11.13;;;6.65;;
11016;SDS011;54687;50.800;6.772;2023-03-21T07:26:34;10.68;;;6.68;;
11016;SDS011;54687;50.800;6.772;2023-03-21T07:29:02;9.23;;;6.60;;
11016;SDS011;54687;50.800;6.772;2023-03-21T07:31:29;10.30;;;6.72;;
11016;SDS011;54687;50.800;6.772;2023-03-21T07:33:56;10.02;;;6.82;;
11016;SDS011;54687;50.800;6.772;2023-03-21T07:36:22;12.80;;;7.18;;
11016;SDS011;54687;50.800;6.772;2023-03-21T07:38:51;11.07;;;6.78;;
11016;SDS011;54687;50.800;6.772;2023-03-21T07:41:18;12.85;;;6.95;;
11016;SDS011;54687;50.800;6.772;2023-03-21T07:43:45;8.25;;;6.63;;
11016;SDS011;54687;50.800;6.772;2023-03-21T07:46:11;9.13;;;6.47;;
11016;SDS011;54687;50.800;6.772;2023-03-21T07:48:38;12.05;;;6.97;;
11016;SDS011;54687;50.800;6.772;2023-03-21T07:51:04;10.50;;;6.57;;
11016;SDS011;54687;50.800;6.772;2023-03-21T07:53:31;9.73;;;6.65;;
11016;SDS011;54687;50.800;6.772;2023-03-21T07:55:59;14.07;;;7.45;;
11016;SDS011;54687;50.800;6.772;2023-03-21T07:58:26;10.10;;;6.72;;
11016;SDS011;54687;50.800;6.772;2023-03-21T08:00:53;12.98;;;6.70;;
11016;SDS011;54687;50.800;6.772;2023-03-21T08:03:21;9.13;;;6.65;;
11016;SDS011;54687;50.800;6.772;2023-03-21T08:05:50;9.82;;;6.82;;
11016;SDS011;54687;50.800;6.772;2023-03-21T08:08:17;11.15;;;6.40;;
11016;SDS011;54687;50.800;6.772;2023-03-21T08:10:43;9.20;;;6.75;;
11016;SDS011;54687;50.800;6.772;2023-03-21T08:13:12;11.30;;;6.75;;
11016;SDS011;54687;50.800;6.772;2023-03-21T08:15:38;11.00;;;6.25;;
11016;SDS011;54687;50.800;6.772;2023-03-21T08:18:06;8.35;;;6.60;;
11016;SDS011;54687;50.800;6.772;2023-03-21T08:20:32;10.00;;;5.68;;
11016;SDS011;54687;50.800;6.772;2023-03-21T08:23:00;8.00;;;6.10;;
11016;SDS011;54687;50.800;6.772;2023-03-21T08:25:27;7.45;;;6.07;;
11016;SDS011;54687;50.800;6.772;2023-03-21T08:27:53;9.23;;;7.05;;
11016;SDS011;54687;50.800;6.772;2023-03-21T08:30:22;11.13;;;6.45;;
11016;SDS011;54687;50.800;6.772;2023-03-21T08:32:54;7.95;;;5.93;;
11016;SDS011;54687;50.800;6.772;2023-03-21T08:35:22;8.85;;;6.63;;
11016;SDS011;54687;50.800;6.772;2023-03-21T08:37:49;9.07;;;6.60;;
11016;SDS011;54687;50.800;6.772;2023-03-21T08:40:16;10.88;;;6.60;;
11016;SDS011;54687;50.800;6.772;2023-03-21T08:42:44;8.10;;;6.32;;
11016;SDS011;54687;50.800;6.772;2023-03-21T08:45:12;13.38;;;6.97;;
11016;SDS011;54687;50.800;6.772;2023-03-21T08:47:41;11.90;;;6.45;;
11016;SDS011;54687;50.800;6.772;2023-03-21T08:50:08;9.38;;;6.95;;
11016;SDS011;54687;50.800;6.772;2023-03-21T08:52:38;15.82;;;11.02;;
11016;SDS011;54687;50.800;6.772;2023-03-21T08:55:05;9.77;;;6.88;;
11016;SDS011;54687;50.800;6.772;2023-03-21T08:57:32;9.65;;;7.05;;
11016;SDS011;54687;50.800;6.772;2023-03-21T08:59:59;11.95;;;7.10;;
11016;SDS011;54687;50.800;6.772;2023-03-21T09:02:28;10.52;;;7.13;;
11016;SDS011;54687;50.800;6.772;2023-03-21T09:04:55;10.18;;;7.50;;
11016;SDS011;54687;50.800;6.772;2023-03-21T09:07:24;9.45;;;7.70;;
11016;SDS011;54687;50.800;6.772;2023-03-21T09:09:51;12.32;;;7.63;;
11016;SDS011;54687;50.800;6.772;2023-03-21T09:12:18;10.02;;;7.70;;
11016;SDS011;54687;50.800;6.772;2023-03-21T09:14:45;11.07;;;7.22;;
11016;SDS011;54687;50.800;6.772;2023-03-21T09:17:11;10.82;;;8.07;;
11016;SDS011;54687;50.800;6.772;2023-03-21T09:19:38;13.93;;;9.38;;
11016;SDS011;54687;50.800;6.772;2023-03-21T09:22:06;12.00;;;7.25;;
11016;SDS011;54687;50.800;6.772;2023-03-21T09:24:41;9.93;;;7.55;;
11016;SDS011;54687;50.800;6.772;2023-03-21T09:27:09;11.95;;;7.38;;
11016;SDS011;54687;50.800;6.772;2023-03-21T09:29:35;11.43;;;8.35;;
11016;SDS011;54687;50.800;6.772;2023-03-21T09:32:02;11.60;;;7.40;;
11016;SDS011;54687;50.800;6.772;2023-03-21T09:34:31;13.10;;;7.95;;
11016;SDS011;54687;50.800;6.772;2023-03-21T09:36:57;10.35;;;7.75;;
11016;SDS011;54687;50.800;6.772;2023-03-21T09:39:26;9.13;;;6.95;;
11016;SDS011;54687;50.800;6.772;2023-03-21T09:41:59;10.40;;;7.57;;
11016;SDS011;54687;50.800;6.772;2023-03-21T09:44:44;9.38;;;7.63;;
11016;SDS011;54687;50.800;6.772;2023-03-21T09:47:20;7.80;;;6.30;;
11016;SDS011;54687;50.800;6.772;2023-03-21T09:49:54;9.73;;;6.50;;
11016;SDS011;54687;50.800;6.772;2023-03-21T09:52:25;10.10;;;7.50;;
11016;SDS011;54687;50.800;6.772;2023-03-21T09:54:59;12.25;;;7.45;;
11016;SDS011;54687;50.800;6.772;2023-03-21T09:57:28;9.70;;;7.53;;
11016;SDS011;54687;50.800;6.772;2023-03-21T10:00:00;10.40;;;6.80;;
11016;SDS011;54687;50.800;6.772;2023-03-21T10:02:37;8.95;;;6.40;;
11016;SDS011;54687;50.800;6.772;2023-03-21T10:05:10;9.30;;;6.95;;
11016;SDS011;54687;50.800;6.772;2023-03-21T10:07:39;12.35;;;7.28;;
11016;SDS011;54687;50.800;6.772;2023-03-21T10:10:13;11.73;;;6.95;;
11016;SDS011;54687;50.800;6.772;2023-03-21T10:12:42;27.33;;;11.07;;
11016;SDS011;54687;50.800;6.772;2023-03-21T10:15:13;11.40;;;6.30;;
11016;SDS011;54687;50.800;6.772;2023-03-21T10:17:43;9.88;;;6.50;;
11016;SDS011;54687;50.800;6.772;2023-03-21T10:20:17;11.68;;;6.65;;
11016;SDS011;54687;50.800;6.772;2023-03-21T10:22:46;10.23;;;6.70;;
11016;SDS011;54687;50.800;6.772;2023-03-21T10:25:16;8.27;;;5.90;;
11016;SDS011;54687;50.800;6.772;2023-03-21T10:27:46;10.95;;;6.30;;
11016;SDS011;54687;50.800;6.772;2023-03-21T10:30:23;9.88;;;7.22;;
11016;SDS011;54687;50.800;6.772;2023-03-21T10:32:53;11.20;;;6.82;;
11016;SDS011;54687;50.800;6.772;2023-03-21T10:35:22;10.63;;;7.30;;
11016;SDS011;54687;50.800;6.772;2023-03-21T10:37:49;11.50;;;6.88;;
11016;SDS011;54687;50.800;6.772;2023-03-21T10:40:19;11.52;;;7.63;;
11016;SDS011;54687;50.800;6.772;2023-03-21T10:42:45;10.63;;;7.00;;
11016;SDS011;54687;50.800;6.772;2023-03-21T10:45:13;8.50;;;6.72;;
11016;SDS011;54687;50.800;6.772;2023-03-21T10:47:41;10.70;;;6.78;;
11016;SDS011;54687;50.800;6.772;2023-03-21T10:50:11;11.18;;;6.13;;
11016;SDS011;54687;50.800;6.772;2023-03-21T10:52:41;11.27;;;6.90;;
11016;SDS011;54687;50.800;6.772;2023-03-21T10:55:21;10.15;;;6.50;;
11016;SDS011;54687;50.800;6.772;2023-03-21T10:57:54;10.52;;;6.57;;
11016;SDS011;54687;50.800;6.772;2023-03-21T11:00:24;7.13;;;6.15;;
11016;SDS011;54687;50.800;6.772;2023-03-21T11:02:53;9.80;;;6.47;;
11016;SDS011;54687;50.800;6.772;2023-03-21T11:05:21;10.70;;;7.15;;
11016;SDS011;54687;50.800;6.772;2023-03-21T11:07:57;15.70;;;7.60;;
11016;SDS011;54687;50.800;6.772;2023-03-21T11:10:28;8.98;;;6.45;;
11016;SDS011;54687;50.800;6.772;2023-03-21T11:12:58;17.60;;;9.10;;
11016;SDS011;54687;50.800;6.772;2023-03-21T11:15:29;8.15;;;6.18;;
11016;SDS011;54687;50.800;6.772;2023-03-21T11:17:57;12.70;;;6.50;;
11016;SDS011;54687;50.800;6.772;2023-03-21T11:20:24;8.98;;;6.25;;
11016;SDS011;54687;50.800;6.772;2023-03-21T11:22:54;9.65;;;6.35;;
11016;SDS011;54687;50.800;6.772;2023-03-21T11:25:34;7.30;;;5.82;;
11016;SDS011;54687;50.800;6.772;2023-03-21T11:28:05;8.00;;;6.07;;
11016;SDS011;54687;50.800;6.772;2023-03-21T11:30:35;14.80;;;8.52;;
11016;SDS011;54687;50.800;6.772;2023-03-21T11:33:02;8.40;;;6.28;;
11016;SDS011;54687;50.800;6.772;2023-03-21T11:35:33;9.45;;;6.00;;
11016;SDS011;54687;50.800;6.772;2023-03-21T11:38:01;8.93;;;6.22;;
11016;SDS011;54687;50.800;6.772;2023-03-21T11:40:29;7.78;;;5.90;;
11016;SDS011;54687;50.800;6.772;2023-03-21T11:43:00;8.15;;;5.85;;
11016;SDS011;54687;50.800;6.772;2023-03-21T11:45:29;8.20;;;6.15;;
11016;SDS011;54687;50.800;6.772;2023-03-21T11:47:58;9.63;;;6.40;;
11016;SDS011;54687;50.800;6.772;2023-03-21T11:50:27;10.73;;;5.78;;
11016;SDS011;54687;50.800;6.772;2023-03-21T11:53:04;10.00;;;6.55;;
11016;SDS011;54687;50.800;6.772;2023-03-21T11:55:48;8.68;;;6.55;;
11016;SDS011;54687;50.800;6.772;2023-03-21T11:58:29;7.07;;;5.88;;
11016;SDS011;54687;50.800;6.772;2023-03-21T12:01:02;9.40;;;5.82;;
11016;SDS011;54687;50.800;6.772;2023-03-21T12:03:44;7.85;;;6.07;;
11016;SDS011;54687;50.800;6.772;2023-03-21T12:06:16;8.75;;;5.90;;
11016;SDS011;54687;50.800;6.772;2023-03-21T12:08:53;10.90;;;6.50;;
11016;SDS011;54687;50.800;6.772;2023-03-21T12:11:35;6.70;;;5.50;;
11016;SDS011;54687;50.800;6.772;2023-03-21T12:14:16;7.40;;;5.28;;
11016;SDS011;54687;50.800;6.772;2023-03-21T12:16:53;8.38;;;5.25;;
11016;SDS011;54687;50.800;6.772;2023-03-21T12:19:38;7.00;;;5.38;;
11016;SDS011;54687;50.800;6.772;2023-03-21T12:22:17;6.20;;;5.40;;
11016;SDS011;54687;50.800;6.772;2023-03-21T12:24:52;7.90;;;5.72;;
11016;SDS011;54687;50.800;6.772;2023-03-21T12:27:23;8.50;;;5.88;;
11016;SDS011;54687;50.800;6.772;2023-03-21T12:30:02;10.13;;;5.95;;
11016;SDS011;54687;50.800;6.772;2023-03-21T12:32:43;6.80;;;5.20;;
11016;SDS011;54687;50.800;6.772;2023-03-21T12:35:24;6.57;;;5.68;;
11016;SDS011;54687;50.800;6.772;2023-03-21T12:38:14;6.18;;;5.07;;
11016;SDS011;54687;50.800;6.772;2023-03-21T12:40:46;12.25;;;6.03;;
11016;SDS011;54687;50.800;6.772;2023-03-21T12:43:23;5.88;;;5.18;;
11016;SDS011;54687;50.800;6.772;2023-03-21T12:45:57;6.25;;;4.82;;
11016;SDS011;54687;50.800;6.772;2023-03-21T12:48:35;5.45;;;4.80;;
11016;SDS011;54687;50.800;6.772;2023-03-21T12:51:07;5.65;;;4.65;;
11016;SDS011;54687;50.800;6.772;2023-03-21T12:53:40;5.22;;;4.20;;
11016;SDS011;54687;50.800;6.772;2023-03-21T12:56:16;5.53;;;4.25;;
11016;SDS011;54687;50.800;6.772;2023-03-21T12:58:47;5.63;;;4.20;;
11016;SDS011;54687;50.800;6.772;2023-03-21T13:01:19;5.40;;;4.35;;
11016;SDS011;54687;50.800;6.772;2023-03-21T13:03:49;7.65;;;4.75;;
11016;SDS011;54687;50.800;6.772;2023-03-21T13:06:32;7.45;;;4.88;;
11016;SDS011;54687;50.800;6.772;2023-03-21T13:09:01;7.07;;;4.10;;
11016;SDS011;54687;50.800;6.772;2023-03-21T13:11:35;5.25;;;3.85;;
11016;SDS011;54687;50.800;6.772;2023-03-21T13:14:03;5.80;;;4.40;;
11016;SDS011;54687;50.800;6.772;2023-03-21T13:16:35;7.90;;;4.45;;
11016;SDS011;54687;50.800;6.772;2023-03-21T13:19:10;7.97;;;4.38;;
11016;SDS011;54687;50.800;6.772;2023-03-21T13:21:45;4.97;;;4.25;;
11016;SDS011;54687;50.800;6.772;2023-03-21T13:24:24;4.78;;;4.10;;
11016;SDS011;54687;50.800;6.772;2023-03-21T13:26:58;6.38;;;4.30;;
11016;SDS011;54687;50.800;6.772;2023-03-21T13:29:32;9.55;;;5.15;;
11016;SDS011;54687;50.800;6.772;2023-03-21T13:32:13;5.38;;;4.50;;
11016;SDS011;54687;50.800;6.772;2023-03-21T13:34:44;6.60;;;3.97;;
11016;SDS011;54687;50.800;6.772;2023-03-21T13:37:12;4.28;;;3.83;;
11016;SDS011;54687;50.800;6.772;2023-03-21T13:39:43;4.82;;;4.20;;
11016;SDS011;54687;50.800;6.772;2023-03-21T13:42:20;4.72;;;4.28;;
11016;SDS011;54687;50.800;6.772;2023-03-21T13:44:51;5.53;;;3.97;;
11016;SDS011;54687;50.800;6.772;2023-03-21T13:50:22;5.80;;;4.20;;
11016;SDS011;54687;50.800;6.772;2023-03-21T13:58:49;5.05;;;4.00;;
11016;SDS011;54687;50.800;6.772;2023-03-21T14:01:20;6.18;;;3.83;;
11016;SDS011;54687;50.800;6.772;2023-03-21T14:03:57;4.20;;;3.80;;
11016;SDS011;54687;50.800;6.772;2023-03-21T14:06:32;5.18;;;3.88;;
11016;SDS011;54687;50.800;6.772;2023-03-21T14:09:01;4.90;;;4.10;;
11016;SDS011;54687;50.800;6.772;2023-03-21T14:11:29;4.22;;;3.72;;
11016;SDS011;54687;50.800;6.772;2023-03-21T14:13:58;4.95;;;4.00;;
11016;SDS011;54687;50.800;6.772;2023-03-21T14:16:25;12.80;;;6.40;;
11016;SDS011;54687;50.800;6.772;2023-03-21T14:18:54;4.55;;;4.03;;
11016;SDS011;54687;50.800;6.772;2023-03-21T14:21:25;6.03;;;3.95;;
11016;SDS011;54687;50.800;6.772;2023-03-21T14:23:56;4.25;;;3.85;;
11016;SDS011;54687;50.800;6.772;2023-03-21T14:26:27;4.65;;;3.80;;
11016;SDS011;54687;50.800;6.772;2023-03-21T14:28:57;5.18;;;4.03;;
11016;SDS011;54687;50.800;6.772;2023-03-21T14:31:24;6.15;;;3.65;;
11016;SDS011;54687;50.800;6.772;2023-03-21T14:33:52;3.95;;;3.55;;
11016;SDS011;54687;50.800;6.772;2023-03-21T14:36:24;4.47;;;4.03;;
11016;SDS011;54687;50.800;6.772;2023-03-21T14:38:54;3.85;;;3.30;;
11016;SDS011;54687;50.800;6.772;2023-03-21T14:41:29;4.53;;;3.85;;
11016;SDS011;54687;50.800;6.772;2023-03-21T14:44:10;5.63;;;3.88;;
11016;SDS011;54687;50.800;6.772;2023-03-21T14:46:51;8.43;;;4.43;;
11016;SDS011;54687;50.800;6.772;2023-03-21T14:49:20;8.15;;;4.47;;
11016;SDS011;54687;50.800;6.772;2023-03-21T14:51:52;6.88;;;4.40;;
11016;SDS011;54687;50.800;6.772;2023-03-21T14:54:21;4.25;;;3.85;;
11016;SDS011;54687;50.800;6.772;2023-03-21T14:56:50;5.65;;;4.28;;
11016;SDS011;54687;50.800;6.772;2023-03-21T14:59:19;7.63;;;4.05;;
11016;SDS011;54687;50.800;6.772;2023-03-21T15:01:49;4.35;;;3.95;;
11016;SDS011;54687;50.800;6.772;2023-03-21T15:04:17;5.22;;;3.78;;
11016;SDS011;54687;50.800;6.772;2023-03-21T15:06:47;5.18;;;4.05;;
11016;SDS011;54687;50.800;6.772;2023-03-21T15:09:17;4.30;;;3.90;;
11016;SDS011;54687;50.800;6.772;2023-03-21T15:11:48;5.75;;;3.80;;
11016;SDS011;54687;50.800;6.772;2023-03-21T15:14:16;4.82;;;4.30;;